Time;durP1;ratioP1;P1;durP2;ratioP2;P2;SDS_P1;SDS_P2;PMS_P1;PMS_P2;Temp;Humidity;BMP_temperature;BMP_pressure;BME280_temperature;BME280_humidity;BME280_pressure;Samples;Min_cycle;Max_cycle;Signal;HPM_P1;HPM_P2
2022/05/08 00:01:57;;;;;;;0.32;0.22;;;;;;;;;;4967370;28;20049;-78
2022/05/08 00:04:22;;;;;;;0.73;0.43;;;;;;;;;;4967434;28;20097;-77
2022/05/08 00:06:49;;;;;;;1.33;0.80;;;;;;;;;;4957444;28;20041;-78
2022/05/08 00:09:14;;;;;;;0.68;0.38;;;;;;;;;;4970536;28;20042;-78
2022/05/08 00:11:40;;;;;;;1.08;0.47;;;;;;;;;;4967013;28;20045;-79
2022/05/08 00:14:05;;;;;;;0.75;0.50;;;;;;;;;;4968563;28;20077;-78
2022/05/08 00:16:31;;;;;;;0.90;0.47;;;;;;;;;;4967011;28;20061;-77
2022/05/08 00:18:57;;;;;;;1.00;0.52;;;;;;;;;;4977925;28;20293;-78
2022/05/08 00:21:22;;;;;;;0.40;0.28;;;;;;;;;;5002028;28;20429;-78
2022/05/08 00:23:48;;;;;;;0.75;0.45;;;;;;;;;;4971139;28;20121;-77
2022/05/08 00:26:13;;;;;;;0.88;0.50;;;;;;;;;;4984986;28;20112;-77
2022/05/08 00:28:39;;;;;;;0.55;0.38;;;;;;;;;;4971376;28;20039;-79
2022/05/08 00:31:08;;;;;;;1.58;0.55;;;;;;;;;;4971409;28;20038;-78
2022/05/08 00:33:33;;;;;;;0.50;0.30;;;;;;;;;;4975859;28;20129;-78
2022/05/08 00:35:59;;;;;;;0.90;0.43;;;;;;;;;;4970158;28;20162;-78
2022/05/08 00:38:24;;;;;;;0.50;0.35;;;;;;;;;;4965745;28;20062;-78
2022/05/08 00:40:49;;;;;;;2.42;0.63;;;;;;;;;;4971016;28;20042;-78
2022/05/08 00:43:33;;;;;;;1.23;0.63;;;;;;;;;;4970804;28;20078;-77
2022/05/08 00:46:03;;;;;;;1.08;0.68;;;;;;;;;;4984384;28;20053;-77
2022/05/08 00:48:28;;;;;;;0.98;0.57;;;;;;;;;;4982597;28;20043;-77
2022/05/08 00:50:54;;;;;;;1.77;0.95;;;;;;;;;;4970739;28;20532;-77
2022/05/08 00:53:20;;;;;;;0.88;0.60;;;;;;;;;;4970675;28;20041;-79
2022/05/08 00:55:46;;;;;;;1.77;0.63;;;;;;;;;;4986029;28;20035;-77
2022/05/08 00:58:11;;;;;;;0.25;0.25;;;;;;;;;;4971937;28;20035;-78
2022/05/08 01:00:37;;;;;;;0.85;0.65;;;;;;;;;;4970457;28;20398;-78
2022/05/08 01:03:03;;;;;;;1.10;0.63;;;;;;;;;;4987012;28;20045;-78
2022/05/08 01:05:29;;;;;;;3.25;0.70;;;;;;;;;;4974397;28;20054;-78
2022/05/08 01:07:54;;;;;;;1.77;0.47;;;;;;;;;;4971626;28;20801;-78
2022/05/08 01:10:19;;;;;;;0.22;0.20;;;;;;;;;;4984814;28;20038;-79
2022/05/08 01:12:45;;;;;;;0.95;0.45;;;;;;;;;;4986698;28;20540;-79
2022/05/08 01:15:14;;;;;;;0.40;0.30;;;;;;;;;;4972776;28;20069;-79
2022/05/08 01:17:39;;;;;;;1.25;0.50;;;;;;;;;;4987717;28;20038;-78
2022/05/08 01:20:05;;;;;;;0.30;0.22;;;;;;;;;;4986645;28;20039;-78
2022/05/08 01:22:31;;;;;;;0.65;0.28;;;;;;;;;;4985987;28;20049;-79
2022/05/08 01:24:58;;;;;;;0.20;0.15;;;;;;;;;;4970570;28;20038;-78
2022/05/08 01:27:24;;;;;;;1.90;0.38;;;;;;;;;;4969468;28;20045;-78
2022/05/08 01:29:49;;;;;;;0.55;0.30;;;;;;;;;;4968792;28;20133;-79
2022/05/08 01:32:14;;;;;;;0.10;0.10;;;;;;;;;;4969785;28;20035;-80
2022/05/08 01:34:39;;;;;;;0.43;0.22;;;;;;;;;;4986344;28;20057;-79
2022/05/08 01:37:08;;;;;;;0.85;0.40;;;;;;;;;;4985079;28;20133;-79
2022/05/08 01:39:33;;;;;;;0.50;0.30;;;;;;;;;;4985653;28;20916;-78
2022/05/08 01:41:58;;;;;;;0.55;0.43;;;;;;;;;;4986386;28;20034;-79
2022/05/08 01:44:24;;;;;;;2.83;0.43;;;;;;;;;;4984836;28;20045;-78
2022/05/08 01:48:21;;;;;;;0.22;0.13;;;;;;;;;;4969531;28;20374;-80
2022/05/08 01:49:37;;;;;;;0.55;0.30;;;;;;;;;;4982607;28;20365;-79
2022/05/08 01:52:03;;;;;;;0.55;0.47;;;;;;;;;;4985496;28;20932;-79
2022/05/08 01:54:28;;;;;;;0.35;0.20;;;;;;;;;;4971475;28;20042;-78
2022/05/08 01:56:53;;;;;;;0.40;0.30;;;;;;;;;;4969181;28;20456;-78
2022/05/08 01:59:19;;;;;;;0.45;0.30;;;;;;;;;;4982253;28;20034;-78
2022/05/08 02:01:44;;;;;;;0.38;0.20;;;;;;;;;;4969038;28;20038;-78
2022/05/08 02:04:15;;;;;;;0.60;0.40;;;;;;;;;;4969199;28;20610;-79
2022/05/08 02:06:44;;;;;;;0.35;0.20;;;;;;;;;;4981673;28;20042;-79
2022/05/08 02:09:09;;;;;;;0.25;0.20;;;;;;;;;;4985418;28;20370;-78
2022/05/08 02:11:35;;;;;;;0.40;0.28;;;;;;;;;;4985600;28;20037;-80
2022/05/08 02:14:02;;;;;;;0.60;0.30;;;;;;;;;;4969139;28;20062;-79
2022/05/08 02:16:28;;;;;;;0.20;0.20;;;;;;;;;;4968848;28;20060;-78
2022/05/08 02:18:53;;;;;;;0.70;0.30;;;;;;;;;;4985549;28;20038;-79
2022/05/08 02:21:19;;;;;;;0.10;0.10;;;;;;;;;;4972564;28;20041;-77
2022/05/08 02:23:44;;;;;;;0.50;0.20;;;;;;;;;;4969051;28;20100;-78
2022/05/08 02:26:09;;;;;;;0.20;0.13;;;;;;;;;;4971875;28;20525;-78
2022/05/08 02:28:34;;;;;;;0.22;0.20;;;;;;;;;;4985075;28;20038;-79
2022/05/08 02:31:00;;;;;;;0.82;0.35;;;;;;;;;;4971639;28;20548;-79
2022/05/08 02:33:25;;;;;;;0.57;0.30;;;;;;;;;;4972933;28;20093;-79
2022/05/08 02:35:50;;;;;;;0.30;0.20;;;;;;;;;;4968830;28;20493;-78
2022/05/08 02:38:16;;;;;;;0.63;0.38;;;;;;;;;;4983504;28;20045;-78
2022/05/08 02:40:41;;;;;;;0.30;0.30;;;;;;;;;;4971308;28;20030;-78
2022/05/08 02:43:06;;;;;;;0.32;0.30;;;;;;;;;;4969170;28;20074;-78
2022/05/08 02:45:32;;;;;;;5.57;0.50;;;;;;;;;;4971451;28;20145;-79
2022/05/08 02:47:57;;;;;;;0.47;0.20;;;;;;;;;;4984313;28;20111;-78
2022/05/08 02:50:26;;;;;;;0.30;0.25;;;;;;;;;;4975123;28;20038;-78
2022/05/08 02:52:51;;;;;;;0.40;0.28;;;;;;;;;;4970370;28;20045;-79
2022/05/08 03:00:45;;;;;;;0.65;0.47;;;;;;;;;;4983867;28;20076;-78
2022/05/08 03:03:11;;;;;;;0.38;0.20;;;;;;;;;;5000871;28;20509;-79
2022/05/08 03:05:37;;;;;;;0.60;0.47;;;;;;;;;;4984026;28;20143;-79
2022/05/08 03:08:05;;;;;;;0.47;0.30;;;;;;;;;;4968631;28;20132;-78
2022/05/08 03:11:25;;;;;;;0.60;0.40;;;;;;;;;;4967738;28;20426;-78
2022/05/08 03:13:16;;;;;;;0.40;0.30;;;;;;;;;;4984259;28;20030;-78
2022/05/08 03:15:41;;;;;;;0.77;0.38;;;;;;;;;;4980168;28;20045;-78
2022/05/08 03:18:07;;;;;;;0.98;0.57;;;;;;;;;;4968460;28;20030;-78
2022/05/08 03:20:32;;;;;;;0.32;0.20;;;;;;;;;;4984120;28;20030;-78
2022/05/08 03:22:59;;;;;;;0.80;0.38;;;;;;;;;;4968857;28;20066;-78
2022/05/08 03:25:24;;;;;;;1.05;0.28;;;;;;;;;;4967934;28;20117;-78
2022/05/08 03:27:51;;;;;;;0.22;0.20;;;;;;;;;;4973618;28;20121;-78
2022/05/08 03:30:16;;;;;;;0.55;0.30;;;;;;;;;;4967803;28;20450;-79
2022/05/08 03:32:41;;;;;;;0.40;0.40;;;;;;;;;;4970415;28;20031;-79
2022/05/08 03:35:07;;;;;;;0.43;0.32;;;;;;;;;;4967748;28;20046;-78
2022/05/08 03:37:33;;;;;;;0.32;0.22;;;;;;;;;;4967917;28;20547;-78
2022/05/08 03:39:59;;;;;;;1.38;0.68;;;;;;;;;;4984213;28;20038;-78
2022/05/08 03:42:24;;;;;;;1.25;0.80;;;;;;;;;;4984283;28;20047;-78
2022/05/08 03:44:53;;;;;;;0.50;0.25;;;;;;;;;;4984417;28;20121;-78
2022/05/08 03:47:18;;;;;;;0.55;0.40;;;;;;;;;;4977655;28;20481;-78
2022/05/08 03:49:44;;;;;;;0.40;0.38;;;;;;;;;;4961122;28;20129;-79
2022/05/08 03:52:09;;;;;;;0.50;0.30;;;;;;;;;;4955737;28;20117;-79
2022/05/08 03:54:34;;;;;;;0.65;0.40;;;;;;;;;;4968022;28;20062;-78
2022/05/08 03:57:00;;;;;;;4.90;0.70;;;;;;;;;;4971389;28;20131;-78
2022/05/08 03:59:25;;;;;;;5.47;0.75;;;;;;;;;;4968373;28;20457;-80
2022/05/08 04:01:54;;;;;;;0.55;0.30;;;;;;;;;;4983285;28;20034;-78
2022/05/08 04:04:19;;;;;;;0.65;0.45;;;;;;;;;;4966555;28;20120;-78
2022/05/08 04:06:45;;;;;;;0.68;0.43;;;;;;;;;;4981859;28;20121;-77
2022/05/08 04:09:10;;;;;;;1.30;0.68;;;;;;;;;;4983243;28;20045;-78
2022/05/08 04:11:35;;;;;;;0.77;0.35;;;;;;;;;;4981970;28;20408;-79
2022/05/08 04:14:01;;;;;;;1.30;0.47;;;;;;;;;;4982605;28;20042;-79
2022/05/08 04:16:26;;;;;;;0.40;0.30;;;;;;;;;;4966681;28;20034;-79
2022/05/08 04:18:51;;;;;;;0.43;0.30;;;;;;;;;;4981700;28;20403;-78
2022/05/08 04:21:17;;;;;;;1.73;0.75;;;;;;;;;;4970547;28;20031;-78
2022/05/08 04:26:26;;;;;;;0.88;0.40;;;;;;;;;;4982680;28;20138;-78
2022/05/08 04:28:51;;;;;;;1.98;0.93;;;;;;;;;;4967850;28;20031;-78
2022/05/08 04:31:16;;;;;;;3.22;1.00;;;;;;;;;;4982180;28;20391;-78
2022/05/08 04:33:44;;;;;;;1.60;0.75;;;;;;;;;;4968420;28;20065;-79
2022/05/08 04:36:09;;;;;;;0.20;0.20;;;;;;;;;;4983730;28;20089;-77
2022/05/08 04:38:35;;;;;;;0.90;0.40;;;;;;;;;;4967381;28;20445;-77
2022/05/08 04:41:00;;;;;;;0.52;0.45;;;;;;;;;;4980331;28;20039;-78
2022/05/08 04:43:25;;;;;;;1.00;0.60;;;;;;;;;;4981066;28;20085;-78
2022/05/08 04:45:51;;;;;;;0.73;0.50;;;;;;;;;;4966767;28;20050;-79
2022/05/08 04:48:16;;;;;;;3.03;0.88;;;;;;;;;;4967705;28;20908;-78
2022/05/08 04:50:41;;;;;;;1.48;0.63;;;;;;;;;;4982396;28;20034;-78
2022/05/08 04:53:06;;;;;;;0.73;0.40;;;;;;;;;;4983986;28;20034;-80
2022/05/08 04:55:32;;;;;;;0.40;0.35;;;;;;;;;;4983797;28;20401;-80
2022/05/08 04:57:57;;;;;;;1.55;0.68;;;;;;;;;;4967202;28;22081;-81
2022/05/08 05:00:23;;;;;;;0.90;0.40;;;;;;;;;;4980844;28;20038;-78
2022/05/08 05:02:48;;;;;;;2.90;0.60;;;;;;;;;;4966644;28;20521;-78
2022/05/08 05:05:16;;;;;;;0.57;0.40;;;;;;;;;;4966764;28;20034;-78
2022/05/08 05:07:42;;;;;;;0.77;0.45;;;;;;;;;;4986441;28;20034;-77
2022/05/08 05:10:09;;;;;;;0.52;0.35;;;;;;;;;;4970979;28;20038;-79
2022/05/08 05:12:35;;;;;;;3.08;0.50;;;;;;;;;;4974339;28;20497;-78
2022/05/08 05:15:01;;;;;;;2.92;0.75;;;;;;;;;;4970236;28;20031;-77
2022/05/08 05:17:26;;;;;;;5.53;0.43;;;;;;;;;;4974428;28;20034;-78
2022/05/08 05:19:51;;;;;;;1.98;0.70;;;;;;;;;;4976188;28;20031;-77
2022/05/08 05:22:23;;;;;;;1.02;0.70;;;;;;;;;;4970499;28;20520;-79
2022/05/08 05:24:49;;;;;;;2.95;1.10;;;;;;;;;;4969712;28;20050;-78
2022/05/08 05:27:15;;;;;;;1.65;0.47;;;;;;;;;;4977154;28;20061;-77
2022/05/08 05:29:40;;;;;;;0.60;0.30;;;;;;;;;;4970694;28;20034;-78
2022/05/08 05:32:06;;;;;;;2.90;0.55;;;;;;;;;;4969552;28;20027;-78
2022/05/08 05:34:31;;;;;;;1.65;0.60;;;;;;;;;;4986054;28;20053;-78
2022/05/08 05:36:57;;;;;;;6.97;0.40;;;;;;;;;;4972616;28;20039;-78
2022/05/08 05:39:24;;;;;;;1.90;1.00;;;;;;;;;;4984793;28;20034;-78
2022/05/08 05:41:49;;;;;;;7.45;0.60;;;;;;;;;;4986071;28;20042;-78
2022/05/08 05:44:14;;;;;;;1.42;0.70;;;;;;;;;;4982669;28;20041;-81
2022/05/08 05:49:27;;;;;;;1.00;0.70;;;;;;;;;;4986345;28;20088;-78
2022/05/08 05:51:52;;;;;;;0.68;0.52;;;;;;;;;;4969847;28;20497;-78
2022/05/08 05:54:21;;;;;;;1.15;0.77;;;;;;;;;;4969700;28;20026;-78
2022/05/08 05:56:47;;;;;;;1.05;0.63;;;;;;;;;;4985554;28;20042;-79
2022/05/08 05:59:14;;;;;;;2.50;0.98;;;;;;;;;;4969772;28;20498;-79
2022/05/08 06:01:39;;;;;;;1.40;0.30;;;;;;;;;;4968560;28;20037;-80
2022/05/08 06:04:05;;;;;;;1.48;0.60;;;;;;;;;;4970841;28;20379;-80
2022/05/08 06:06:30;;;;;;;1.25;0.60;;;;;;;;;;4963856;28;20494;-80
2022/05/08 06:08:55;;;;;;;2.03;0.82;;;;;;;;;;4974840;28;20057;-83
2022/05/08 06:11:20;;;;;;;2.25;0.70;;;;;;;;;;4968716;28;20460;-80
2022/05/08 06:13:46;;;;;;;2.05;0.98;;;;;;;;;;4969580;28;20034;-79
2022/05/08 06:16:11;;;;;;;1.35;0.77;;;;;;;;;;4969024;28;20038;-79
2022/05/08 06:18:36;;;;;;;1.20;0.55;;;;;;;;;;4969035;28;20034;-79
2022/05/08 06:21:02;;;;;;;1.98;0.80;;;;;;;;;;4983944;28;20034;-80
2022/05/08 06:23:27;;;;;;;0.20;0.15;;;;;;;;;;4984360;28;20042;-80
2022/05/08 06:25:53;;;;;;;2.00;0.95;;;;;;;;;;4972576;28;20133;-80
2022/05/08 06:28:19;;;;;;;0.30;0.20;;;;;;;;;;4969011;28;20068;-78
2022/05/08 06:30:48;;;;;;;1.02;0.50;;;;;;;;;;4981011;28;20034;-81
2022/05/08 06:33:14;;;;;;;1.58;0.65;;;;;;;;;;4985514;28;20042;-83
2022/05/08 06:35:39;;;;;;;5.00;1.00;;;;;;;;;;4983562;28;20038;-83
2022/05/08 06:38:05;;;;;;;2.47;0.68;;;;;;;;;;4973661;28;20490;-84
2022/05/08 06:40:31;;;;;;;1.30;0.90;;;;;;;;;;4967391;28;20058;-84
2022/05/08 06:42:56;;;;;;;0.43;0.22;;;;;;;;;;4969437;28;20125;-84
2022/05/08 06:45:24;;;;;;;2.63;0.85;;;;;;;;;;4969176;28;20117;-83
2022/05/08 06:47:49;;;;;;;0.93;0.60;;;;;;;;;;4985130;28;20209;-83
2022/05/08 06:50:17;;;;;;;0.90;0.38;;;;;;;;;;4984413;28;21071;-80
2022/05/08 06:52:42;;;;;;;0.60;0.30;;;;;;;;;;4985061;28;20072;-81
2022/05/08 06:55:07;;;;;;;1.65;0.30;;;;;;;;;;4973708;28;20042;-81
2022/05/08 06:57:32;;;;;;;2.60;0.85;;;;;;;;;;4968970;28;20078;-81
2022/05/08 07:02:42;;;;;;;0.63;0.32;;;;;;;;;;4983862;28;20472;-80
2022/05/08 07:05:08;;;;;;;1.13;0.73;;;;;;;;;;4967682;28;20073;-80
2022/05/08 07:07:33;;;;;;;0.52;0.30;;;;;;;;;;4968014;28;20058;-80
2022/05/08 07:09:58;;;;;;;0.82;0.32;;;;;;;;;;4971637;28;20038;-80
2022/05/08 07:12:24;;;;;;;0.80;0.50;;;;;;;;;;4984578;28;20034;-80
2022/05/08 07:14:49;;;;;;;2.15;0.82;;;;;;;;;;4978623;28;20110;-80
2022/05/08 07:17:14;;;;;;;9.00;0.82;;;;;;;;;;4968618;28;20409;-81
2022/05/08 07:19:40;;;;;;;1.23;0.52;;;;;;;;;;4968714;28;20034;-80
2022/05/08 07:22:05;;;;;;;0.63;0.40;;;;;;;;;;4968761;28;20432;-81
2022/05/08 07:24:30;;;;;;;0.15;0.15;;;;;;;;;;4967891;28;20419;-81
2022/05/08 07:26:57;;;;;;;0.55;0.20;;;;;;;;;;4982078;28;20042;-82
2022/05/08 07:29:22;;;;;;;1.23;0.32;;;;;;;;;;4969054;28;20031;-80
2022/05/08 07:31:53;;;;;;;1.30;0.60;;;;;;;;;;4984852;28;20560;-81
2022/05/08 07:37:02;;;;;;;1.25;0.50;;;;;;;;;;4982964;28;20130;-81
2022/05/08 07:39:30;;;;;;;0.68;0.40;;;;;;;;;;4969357;28;20054;-81
2022/05/08 07:41:55;;;;;;;3.55;0.85;;;;;;;;;;4968812;28;20096;-83
2022/05/08 07:44:20;;;;;;;2.03;0.50;;;;;;;;;;4969905;28;20457;-82
2022/05/08 07:46:46;;;;;;;0.70;0.20;;;;;;;;;;4980089;28;20030;-84
2022/05/08 07:49:11;;;;;;;0.35;0.25;;;;;;;;;;4981341;28;20042;-87
2022/05/08 07:51:36;;;;;;;1.23;0.15;;;;;;;;;;4967515;28;20053;-85
2022/05/08 07:54:01;;;;;;;1.05;0.40;;;;;;;;;;4966766;28;20244;-87
2022/05/08 07:56:28;;;;;;;1.42;0.40;;;;;;;;;;4982804;28;20030;-88
2022/05/08 07:58:53;;;;;;;0.73;0.35;;;;;;;;;;4966945;28;20042;-83
2022/05/08 08:01:19;;;;;;;0.80;0.43;;;;;;;;;;4971581;28;20038;-84
2022/05/08 08:03:44;;;;;;;2.53;0.77;;;;;;;;;;4980819;28;20114;-84
2022/05/08 08:06:09;;;;;;;1.98;0.65;;;;;;;;;;4980732;28;20041;-83
2022/05/08 08:08:35;;;;;;;0.70;0.40;;;;;;;;;;4968565;28;20034;-84
2022/05/08 08:11:03;;;;;;;0.77;0.38;;;;;;;;;;4967508;28;20046;-84
2022/05/08 08:13:31;;;;;;;0.45;0.20;;;;;;;;;;4967353;28;20121;-84
2022/05/08 08:15:56;;;;;;;0.63;0.22;;;;;;;;;;4966718;28;20441;-85
2022/05/08 08:18:23;;;;;;;0.25;0.15;;;;;;;;;;4967911;28;20046;-85
2022/05/08 08:20:48;;;;;;;0.55;0.20;;;;;;;;;;4998186;28;20046;-83
2022/05/08 08:23:14;;;;;;;2.35;0.80;;;;;;;;;;4982391;28;20464;-84
2022/05/08 08:25:39;;;;;;;2.05;0.55;;;;;;;;;;4982843;28;20132;-84
2022/05/08 08:28:05;;;;;;;0.55;0.30;;;;;;;;;;5000745;28;20035;-84
2022/05/08 08:30:30;;;;;;;1.42;0.38;;;;;;;;;;4966252;28;20053;-85
2022/05/08 08:32:55;;;;;;;1.95;0.40;;;;;;;;;;4983275;28;20482;-82
2022/05/08 08:35:21;;;;;;;4.25;0.52;;;;;;;;;;4966313;28;20473;-83
2022/05/08 08:37:46;;;;;;;1.05;0.45;;;;;;;;;;4967691;28;20042;-84
2022/05/08 08:40:12;;;;;;;2.13;0.20;;;;;;;;;;4981837;28;20398;-85
2022/05/08 08:42:42;;;;;;;0.85;0.40;;;;;;;;;;4971588;28;20035;-86
2022/05/08 08:47:53;;;;;;;2.20;0.47;;;;;;;;;;4987381;28;20475;-83
2022/05/08 08:50:19;;;;;;;0.60;0.10;;;;;;;;;;5002995;28;20026;-87
2022/05/08 08:52:45;;;;;;;1.15;0.50;;;;;;;;;;4986762;28;20049;-85
2022/05/08 08:55:11;;;;;;;0.47;0.10;;;;;;;;;;4986195;28;20520;-86
2022/05/08 08:57:37;;;;;;;1.17;0.47;;;;;;;;;;4972249;28;20038;-86
2022/05/08 09:00:05;;;;;;;0.30;0.10;;;;;;;;;;4974177;28;20034;-83
2022/05/08 09:02:30;;;;;;;1.48;0.70;;;;;;;;;;4971367;28;20058;-85
2022/05/08 09:04:57;;;;;;;2.17;0.55;;;;;;;;;;4967918;28;20080;-85
2022/05/08 09:07:34;;;;;;;11.87;1.47;;;;;;;;;;4986432;28;20050;-84
2022/05/08 09:10:10;;;;;;;0.00;0.00;;;;;;;;;;4970107;28;20049;-84
2022/05/08 09:12:36;;;;;;;1.33;0.63;;;;;;;;;;4987288;28;20390;-84
2022/05/08 09:15:28;;;;;;;1.13;0.17;;;;;;;;;;4982893;28;20034;-84
2022/05/08 09:17:58;;;;;;;0.13;0.00;;;;;;;;;;4963460;28;20039;-85
2022/05/08 09:20:41;;;;;;;0.43;0.20;;;;;;;;;;5000909;28;20042;-85
2022/05/08 09:23:14;;;;;;;0.40;0.20;;;;;;;;;;4970568;28;20398;-86
2022/05/08 09:25:47;;;;;;;0.93;0.30;;;;;;;;;;4983878;28;20035;-85
2022/05/08 09:28:21;;;;;;;3.00;0.20;;;;;;;;;;4986541;28;20041;-86
2022/05/08 09:31:11;;;;;;;0.38;0.15;;;;;;;;;;4984050;28;20042;-87
2022/05/08 09:33:45;;;;;;;0.00;0.00;;;;;;;;;;4985896;28;21060;-82
2022/05/08 09:36:10;;;;;;;4.68;0.65;;;;;;;;;;4982775;28;20391;-86
2022/05/08 09:38:58;;;;;;;0.22;0.00;;;;;;;;;;4985874;28;20045;-85
2022/05/08 09:41:30;;;;;;;2.50;0.40;;;;;;;;;;4968515;28;20043;-84
2022/05/08 09:44:07;;;;;;;0.20;0.10;;;;;;;;;;4985284;28;20118;-84
2022/05/08 09:46:43;;;;;;;0.73;0.28;;;;;;;;;;4985705;28;20034;-84
2022/05/08 09:49:09;;;;;;;0.03;0.00;;;;;;;;;;4983060;28;20061;-82
2022/05/08 09:51:35;;;;;;;0.28;0.15;;;;;;;;;;4968809;28;20505;-86
2022/05/08 09:54:00;;;;;;;0.10;0.00;;;;;;;;;;4984023;28;20054;-82
2022/05/08 09:56:26;;;;;;;1.30;0.30;;;;;;;;;;4983628;28;20035;-86
2022/05/08 09:58:51;;;;;;;0.98;0.40;;;;;;;;;;4989985;28;20488;-80
2022/05/08 10:01:17;;;;;;;1.45;0.50;;;;;;;;;;4968315;28;20065;-85
2022/05/08 10:03:43;;;;;;;0.20;0.10;;;;;;;;;;4980843;28;20073;-84
2022/05/08 10:06:09;;;;;;;1.08;0.35;;;;;;;;;;4980543;28;20031;-82
2022/05/08 10:08:38;;;;;;;1.13;0.30;;;;;;;;;;4949765;28;20042;-84
2022/05/08 10:13:56;;;;;;;0.63;0.22;;;;;;;;;;4967959;28;20042;-86
2022/05/08 10:16:44;;;;;;;1.42;0.13;;;;;;;;;;4965496;28;20035;-84
2022/05/08 10:19:24;;;;;;;0.52;0.13;;;;;;;;;;4982913;28;20034;-82
2022/05/08 10:21:56;;;;;;;0.30;0.10;;;;;;;;;;4964898;28;20043;-83
2022/05/08 10:24:34;;;;;;;1.75;0.47;;;;;;;;;;4967267;28;20518;-83
2022/05/08 10:27:17;;;;;;;5.63;0.45;;;;;;;;;;4980732;28;20035;-84
2022/05/08 10:29:52;;;;;;;1.10;0.52;;;;;;;;;;4965264;28;20502;-83
2022/05/08 10:32:32;;;;;;;0.60;0.30;;;;;;;;;;4966071;28;20466;-85
2022/05/08 10:35:25;;;;;;;0.68;0.22;;;;;;;;;;4965270;28;20046;-84
2022/05/08 10:37:59;;;;;;;0.10;0.00;;;;;;;;;;4965939;28;20043;-84
2022/05/08 10:40:25;;;;;;;0.00;0.00;;;;;;;;;;4965478;28;20833;-84
2022/05/08 10:42:55;;;;;;;0.25;0.03;;;;;;;;;;4970098;28;20039;-83
2022/05/08 10:45:32;;;;;;;0.47;0.20;;;;;;;;;;4968516;28;20035;-83
2022/05/08 10:48:08;;;;;;;0.35;0.17;;;;;;;;;;4981139;28;20055;-84
2022/05/08 10:50:33;;;;;;;0.28;0.10;;;;;;;;;;4965305;28;20078;-84
2022/05/08 10:52:59;;;;;;;0.67;0.40;;;;;;;;;;4950147;28;20054;-84
2022/05/08 10:55:25;;;;;;;0.68;0.20;;;;;;;;;;4965204;28;20038;-83
2022/05/08 10:57:51;;;;;;;0.93;0.43;;;;;;;;;;4964489;28;20603;-83
2022/05/08 11:00:18;;;;;;;0.30;0.05;;;;;;;;;;4964542;28;20030;-84
2022/05/08 11:02:52;;;;;;;1.50;0.52;;;;;;;;;;4981406;28;20047;-83
2022/05/08 11:05:21;;;;;;;0.32;0.13;;;;;;;;;;4955529;28;20506;-83
2022/05/08 11:07:48;;;;;;;0.65;0.20;;;;;;;;;;4965222;28;20035;-83
2022/05/08 11:10:15;;;;;;;0.30;0.10;;;;;;;;;;4948740;28;20031;-83
2022/05/08 11:13:12;;;;;;;1.35;0.28;;;;;;;;;;4964948;28;20490;-83
2022/05/08 11:15:40;;;;;;;0.00;0.00;;;;;;;;;;4963831;28;20870;-82
2022/05/08 11:18:10;;;;;;;0.38;0.10;;;;;;;;;;4968825;28;21067;-85
2022/05/08 11:20:45;;;;;;;0.08;0.00;;;;;;;;;;4963849;28;20121;-82
2022/05/08 11:23:12;;;;;;;0.98;0.25;;;;;;;;;;4955741;28;20131;-82
2022/05/08 11:25:37;;;;;;;;;;;;;;;;;;4958751;28;20041;-83
2022/05/08 11:28:03;;;;;;;0.60;0.17;;;;;;;;;;4954087;28;20365;-83
2022/05/08 11:30:32;;;;;;;0.93;0.40;;;;;;;;;;4973028;28;20038;-83
2022/05/08 11:36:09;;;;;;;0.05;0.00;;;;;;;;;;4964112;28;20406;-84
2022/05/08 11:38:46;;;;;;;0.77;0.32;;;;;;;;;;4950951;28;20517;-84
2022/05/08 11:41:14;;;;;;;0.63;0.25;;;;;;;;;;4963503;28;20062;-83
2022/05/08 11:43:45;;;;;;;0.43;0.10;;;;;;;;;;4963876;28;20182;-82
2022/05/08 11:46:18;;;;;;;0.00;0.00;;;;;;;;;;4964171;28;20034;-84
2022/05/08 11:48:46;;;;;;;0.15;0.05;;;;;;;;;;4964640;28;20042;-83
2022/05/08 11:51:13;;;;;;;0.30;0.13;;;;;;;;;;4955934;28;20038;-85
2022/05/08 11:53:49;;;;;;;0.10;0.00;;;;;;;;;;4954185;28;20038;-84
2022/05/08 11:56:25;;;;;;;1.85;0.68;;;;;;;;;;4942754;28;20031;-83
2022/05/08 11:58:58;;;;;;;0.03;0.00;;;;;;;;;;4965700;28;20038;-80
2022/05/08 12:01:31;;;;;;;0.43;0.13;;;;;;;;;;4955324;28;20035;-83
2022/05/08 12:04:18;;;;;;;0.80;0.20;;;;;;;;;;4948470;28;20046;-85
2022/05/08 12:06:55;;;;;;;1.35;0.25;;;;;;;;;;4967557;28;20038;-84
2022/05/08 12:09:20;;;;;;;0.00;0.00;;;;;;;;;;4983907;28;20059;-85
2022/05/08 12:11:46;;;;;;;0.17;0.10;;;;;;;;;;4980925;28;20073;-85
2022/05/08 12:14:11;;;;;;;0.52;0.28;;;;;;;;;;4983389;28;20102;-84
2022/05/08 12:16:37;;;;;;;0.20;0.10;;;;;;;;;;4986605;28;20054;-84
2022/05/08 12:19:15;;;;;;;1.02;0.30;;;;;;;;;;5004003;28;20087;-83
2022/05/08 12:21:40;;;;;;;0.35;0.17;;;;;;;;;;4987242;28;20057;-82
2022/05/08 12:24:19;;;;;;;0.17;0.15;;;;;;;;;;4986292;28;20523;-83
2022/05/08 12:26:44;;;;;;;0.20;0.10;;;;;;;;;;4971089;28;20124;-84
2022/05/08 12:29:22;;;;;;;1.35;0.43;;;;;;;;;;4985801;28;20058;-83
2022/05/08 12:31:51;;;;;;;0.00;0.00;;;;;;;;;;4969552;28;20042;-84
2022/05/08 12:34:18;;;;;;;0.80;0.30;;;;;;;;;;4986705;28;20038;-84
2022/05/08 12:36:43;;;;;;;0.07;0.07;;;;;;;;;;4986631;28;20042;-84
2022/05/08 12:39:09;;;;;;;0.30;0.13;;;;;;;;;;4986579;28;20039;-84
2022/05/08 12:41:35;;;;;;;0.00;0.00;;;;;;;;;;4971507;28;20667;-83
2022/05/08 12:44:01;;;;;;;0.70;0.20;;;;;;;;;;4971563;28;20031;-85
2022/05/08 12:46:27;;;;;;;0.43;0.22;;;;;;;;;;4972979;28;20065;-80
2022/05/08 12:48:52;;;;;;;0.15;0.10;;;;;;;;;;4974674;28;20090;-83
2022/05/08 12:51:17;;;;;;;0.20;0.00;;;;;;;;;;4986042;28;20038;-81
2022/05/08 12:53:43;;;;;;;0.45;0.22;;;;;;;;;;4972742;28;20719;-84
2022/05/08 12:56:09;;;;;;;0.75;0.30;;;;;;;;;;4970734;28;20045;-85
2022/05/08 13:01:19;;;;;;;1.17;0.22;;;;;;;;;;4986287;28;20041;-84
2022/05/08 13:03:44;;;;;;;0.60;0.25;;;;;;;;;;4986456;28;20046;-84
2022/05/08 13:06:09;;;;;;;0.52;0.22;;;;;;;;;;4982242;28;20054;-82
2022/05/08 13:08:35;;;;;;;1.70;0.60;;;;;;;;;;4986696;28;20041;-86
2022/05/08 13:11:02;;;;;;;0.10;0.10;;;;;;;;;;4984565;28;21160;-84
2022/05/08 13:13:30;;;;;;;;;;;;;;;;;;4987641;28;20030;-85
2022/05/08 13:15:56;;;;;;;0.00;0.00;;;;;;;;;;4980393;28;20578;-82
2022/05/08 13:18:21;;;;;;;0.43;0.20;;;;;;;;;;4979340;28;20121;-79
2022/05/08 13:20:46;;;;;;;0.65;0.13;;;;;;;;;;4969252;28;20065;-78
2022/05/08 13:23:12;;;;;;;0.10;0.10;;;;;;;;;;4986198;28;20042;-79
2022/05/08 13:25:38;;;;;;;1.00;0.38;;;;;;;;;;4984826;28;20038;-78
2022/05/08 13:28:03;;;;;;;0.28;0.10;;;;;;;;;;4985329;28;20512;-80
2022/05/08 13:30:29;;;;;;;0.10;0.05;;;;;;;;;;4985395;28;20046;-79
2022/05/08 13:32:54;;;;;;;0.57;0.10;;;;;;;;;;5003243;28;20122;-79
2022/05/08 13:35:19;;;;;;;0.47;0.28;;;;;;;;;;4969019;28;20402;-79
2022/05/08 13:37:45;;;;;;;1.65;0.22;;;;;;;;;;4970358;28;20390;-79
2022/05/08 13:40:10;;;;;;;0.20;0.10;;;;;;;;;;4985286;28;20051;-79
2022/05/08 13:42:36;;;;;;;0.00;0.00;;;;;;;;;;4971707;28;20536;-79
2022/05/08 13:45:02;;;;;;;0.40;0.22;;;;;;;;;;4970224;28;20042;-80
2022/05/08 13:47:28;;;;;;;0.43;0.05;;;;;;;;;;4984860;28;20041;-79
2022/05/08 13:49:55;;;;;;;0.08;0.00;;;;;;;;;;4985310;28;20498;-80
2022/05/08 13:52:22;;;;;;;0.17;0.10;;;;;;;;;;4973699;28;20042;-85
2022/05/08 13:54:50;;;;;;;0.47;0.15;;;;;;;;;;4971436;28;20056;-83
2022/05/08 13:57:16;;;;;;;0.70;0.20;;;;;;;;;;4963373;28;20121;-83
2022/05/08 13:59:41;;;;;;;1.00;0.68;;;;;;;;;;4971462;28;20113;-84
2022/05/08 14:02:07;;;;;;;3.15;1.17;;;;;;;;;;4985269;28;20062;-83
2022/05/08 14:04:32;;;;;;;0.47;0.10;;;;;;;;;;4986368;28;20584;-79
2022/05/08 14:06:58;;;;;;;0.80;0.30;;;;;;;;;;4968475;28;20038;-79
2022/05/08 14:09:27;;;;;;;1.75;0.57;;;;;;;;;;4985619;28;20042;-80
2022/05/08 14:11:54;;;;;;;0.15;0.10;;;;;;;;;;4961911;28;20046;-80
2022/05/08 14:14:25;;;;;;;1.48;0.35;;;;;;;;;;4969856;28;20076;-80
2022/05/08 14:16:51;;;;;;;2.03;0.30;;;;;;;;;;4986233;28;20038;-78
2022/05/08 14:19:16;;;;;;;0.63;0.22;;;;;;;;;;4968689;28;20716;-79
2022/05/08 14:21:41;;;;;;;0.45;0.20;;;;;;;;;;4968467;28;20060;-78
2022/05/08 14:24:07;;;;;;;0.63;0.20;;;;;;;;;;4985637;28;20049;-79
2022/05/08 14:26:32;;;;;;;0.52;0.20;;;;;;;;;;4969004;28;20093;-79
2022/05/08 14:28:57;;;;;;;0.35;0.10;;;;;;;;;;4969687;28;20042;-79
2022/05/08 14:36:53;;;;;;;0.45;0.40;;;;;;;;;;4983729;28;20117;-80
2022/05/08 14:39:19;;;;;;;0.32;0.20;;;;;;;;;;4999438;28;20493;-78
2022/05/08 14:41:45;;;;;;;0.63;0.20;;;;;;;;;;4968665;28;20085;-79
2022/05/08 14:44:10;;;;;;;0.00;0.00;;;;;;;;;;4968761;28;20066;-79
2022/05/08 14:46:36;;;;;;;3.17;0.38;;;;;;;;;;4984823;28;20058;-79
2022/05/08 14:49:01;;;;;;;0.65;0.32;;;;;;;;;;4973574;28;20036;-78
2022/05/08 14:51:28;;;;;;;0.35;0.20;;;;;;;;;;4967850;28;20037;-78
2022/05/08 14:53:53;;;;;;;0.13;0.07;;;;;;;;;;4987113;28;20425;-79
2022/05/08 14:56:18;;;;;;;0.32;0.20;;;;;;;;;;4982602;28;20281;-79
2022/05/08 14:58:46;;;;;;;1.67;0.73;;;;;;;;;;4984070;28;20126;-79
2022/05/08 15:01:12;;;;;;;1.15;0.30;;;;;;;;;;4969006;28;20033;-79
2022/05/08 15:03:39;;;;;;;0.50;0.15;;;;;;;;;;4984492;28;20057;-79
2022/05/08 15:06:04;;;;;;;0.77;0.33;;;;;;;;;;4981431;28;20622;-79
2022/05/08 15:08:32;;;;;;;0.35;0.25;;;;;;;;;;4972225;28;20038;-79
2022/05/08 15:10:57;;;;;;;0.03;0.03;;;;;;;;;;4970244;28;20038;-79
2022/05/08 15:13:23;;;;;;;0.30;0.10;;;;;;;;;;4987485;28;20500;-79
2022/05/08 15:15:48;;;;;;;0.40;0.20;;;;;;;;;;4985089;28;20120;-79
2022/05/08 15:20:57;;;;;;;0.43;0.22;;;;;;;;;;5004406;28;20045;-79